Time;durP1;ratioP1;P1;durP2;ratioP2;P2;SDS_P1;SDS_P2;PMS_P1;PMS_P2;Temp;Humidity;BMP_temperature;BMP_pressure;BME280_temperature;BME280_humidity;BME280_pressure;Samples;Min_cycle;Max_cycle;Signal;HPM_P1;HPM_P2
2022/03/17 00:00:10;;;;;;;38.00;20.60;;;;;;;10.69;100.00;101635.25;4999058;28;20661;-80
2022/03/17 00:02:37;;;;;;;33.63;21.15;;;;;;;10.68;100.00;101629.84;5034574;28;20082;-80
2022/03/17 00:05:05;;;;;;;36.15;21.88;;;;;;;10.62;100.00;101637.47;5020668;28;20042;-79
2022/03/17 00:07:31;;;;;;;31.77;20.10;;;;;;;10.57;100.00;101628.69;5000899;28;20074;-80
2022/03/17 00:09:57;;;;;;;37.38;20.25;;;;;;;10.60;100.00;101625.75;5007365;28;20117;-81
2022/03/17 00:12:23;;;;;;;41.53;20.83;;;;;;;10.64;100.00;101626.41;5015077;28;20651;-81
2022/03/17 00:14:51;;;;;;;36.45;21.15;;;;;;;10.51;100.00;101611.81;5017426;28;20069;-80
2022/03/17 00:17:16;;;;;;;34.08;20.08;;;;;;;10.57;100.00;101620.47;5000601;28;20030;-81
2022/03/17 00:19:42;;;;;;;39.65;21.88;;;;;;;10.57;100.00;101631.44;5017389;28;20151;-81
2022/03/17 00:22:08;;;;;;;35.72;20.90;;;;;;;10.58;100.00;101626.84;5017071;28;20036;-81
2022/03/17 00:24:37;;;;;;;36.45;20.45;;;;;;;10.56;100.00;101632.44;5025145;28;20037;-81
2022/03/17 00:27:06;;;;;;;38.63;21.15;;;;;;;10.52;100.00;101622.66;5019988;28;20493;-81
2022/03/17 00:29:35;;;;;;;41.80;20.45;;;;;;;10.47;100.00;101622.94;5017932;28;20045;-81
2022/03/17 00:32:01;;;;;;;38.33;21.27;;;;;;;10.42;100.00;101610.56;5025043;28;20034;-81
2022/03/17 00:34:26;;;;;;;38.55;22.10;;;;;;;10.39;100.00;101611.63;5016159;28;20025;-80
2022/03/17 00:36:52;;;;;;;40.13;20.90;;;;;;;10.51;100.00;101612.69;5022096;28;20131;-81
2022/03/17 00:39:18;;;;;;;38.30;22.15;;;;;;;10.46;100.00;101615.75;5034084;28;20065;-81
2022/03/17 00:41:44;;;;;;;38.95;21.17;;;;;;;10.44;100.00;101606.72;5022747;28;20034;-81
2022/03/17 00:44:11;;;;;;;34.33;21.45;;;;;;;10.40;100.00;101596.97;5012386;28;20037;-80
2022/03/17 00:46:36;;;;;;;37.08;21.98;;;;;;;10.45;100.00;101613.97;5019427;28;20033;-81
2022/03/17 00:49:03;;;;;;;37.72;21.83;;;;;;;10.36;100.00;101602.75;5039466;28;20029;-81
2022/03/17 00:51:30;;;;;;;36.33;21.23;;;;;;;10.39;100.00;101600.69;5022820;28;20086;-80
2022/03/17 00:53:55;;;;;;;38.33;22.05;;;;;;;10.42;100.00;101613.31;5023803;28;20026;-80
2022/03/17 00:56:21;;;;;;;36.72;22.15;;;;;;;10.42;100.00;101616.91;5010922;28;20530;-81
2022/03/17 00:58:48;;;;;;;35.50;20.48;;;;;;;10.40;100.00;101607.06;5029104;28;20033;-80
2022/03/17 01:01:15;;;;;;;41.55;21.90;;;;;;;10.39;100.00;101622.59;5018852;28;20101;-80
2022/03/17 01:03:46;;;;;;;43.63;22.17;;;;;;;10.39;100.00;101632.66;5022406;28;20086;-81
2022/03/17 01:06:12;;;;;;;39.13;21.13;;;;;;;10.39;100.00;101632.66;5021726;28;20083;-81
2022/03/17 01:08:38;;;;;;;36.65;22.55;;;;;;;10.28;100.00;101633.31;5015516;28;20477;-80
2022/03/17 01:11:04;;;;;;;40.13;21.75;;;;;;;10.19;100.00;101623.88;5024459;28;20042;-80
2022/03/17 01:13:30;;;;;;;40.67;21.98;;;;;;;10.22;100.00;101631.88;5002070;28;20090;-81
2022/03/17 01:15:56;;;;;;;45.08;21.98;;;;;;;10.26;100.00;101632.56;5028399;28;20041;-80
2022/03/17 01:18:22;;;;;;;45.40;22.48;;;;;;;10.26;100.00;101636.19;5030240;28;20041;-81
2022/03/17 01:20:48;;;;;;;45.00;22.35;;;;;;;10.31;100.00;101630.38;5022461;28;20039;-81
2022/03/17 01:23:14;;;;;;;43.60;24.20;;;;;;;10.29;100.00;101625.00;5022280;28;20033;-81
2022/03/17 01:25:39;;;;;;;45.53;23.02;;;;;;;10.22;100.00;101626.41;5024825;28;20405;-81
2022/03/17 01:28:05;;;;;;;43.40;24.02;;;;;;;10.25;100.00;101628.06;5021459;28;20037;-79
2022/03/17 01:30:30;;;;;;;46.00;23.73;;;;;;;10.29;100.00;101630.47;5017037;28;20061;-81
2022/03/17 01:32:56;;;;;;;41.20;23.30;;;;;;;10.21;100.00;101624.63;4997996;28;20036;-80
2022/03/17 01:35:21;;;;;;;41.15;23.88;;;;;;;10.20;100.00;101631.09;5004484;28;20046;-81
2022/03/17 01:37:47;;;;;;;48.55;24.77;;;;;;;10.23;100.00;101628.19;5020388;28;20059;-80
2022/03/17 01:40:13;;;;;;;41.40;24.45;;;;;;;10.26;100.00;101633.44;5014210;28;20041;-81
2022/03/17 01:42:39;;;;;;;47.95;23.58;;;;;;;10.27;100.00;101635.19;5020513;28;20041;-81
2022/03/17 01:45:06;;;;;;;42.83;23.13;;;;;;;10.42;100.00;101630.59;5002074;28;20042;-81
2022/03/17 01:47:33;;;;;;;42.70;22.55;;;;;;;10.41;100.00;101628.88;5024837;28;20055;-81
2022/03/17 01:50:10;;;;;;;41.90;23.25;;;;;;;10.43;100.00;101626.03;5031830;28;20439;-80
2022/03/17 01:52:36;;;;;;;40.58;22.98;;;;;;;10.44;100.00;101623.16;5015470;28;20041;-80
2022/03/17 01:55:02;;;;;;;44.35;22.58;;;;;;;10.48;100.00;101615.63;5015770;28;20038;-80
2022/03/17 01:57:28;;;;;;;42.75;22.42;;;;;;;10.52;100.00;101608.09;5025917;28;20037;-80
2022/03/17 01:59:53;;;;;;;40.38;21.42;;;;;;;10.56;100.00;101626.97;5009090;28;20042;-80
2022/03/17 02:02:19;;;;;;;41.00;22.48;;;;;;;10.59;100.00;101623.13;5024854;28;20073;-80
2022/03/17 02:04:47;;;;;;;38.97;22.55;;;;;;;10.56;100.00;101617.84;5001989;28;20049;-80
2022/03/17 02:07:14;;;;;;;43.67;22.65;;;;;;;10.63;100.00;101611.84;5013655;28;20025;-81
2022/03/17 02:09:41;;;;;;;42.88;21.73;;;;;;;10.58;100.00;101604.94;5030246;28;20026;-80
2022/03/17 02:15:05;;;;;;;43.17;21.23;;;;;;;10.68;100.00;101611.56;5017711;28;20497;-81
2022/03/17 02:17:31;;;;;;;40.97;21.77;;;;;;;10.73;100.00;101614.00;5018474;28;20033;-81
2022/03/17 02:19:59;;;;;;;42.00;21.27;;;;;;;10.67;100.00;101601.56;5002304;28;20030;-81
2022/03/17 02:22:26;;;;;;;34.88;20.48;;;;;;;10.80;100.00;101609.84;5033831;28;20041;-80
2022/03/17 02:27:41;;;;;;;38.30;20.80;;;;;;;10.76;100.00;101594.63;5027918;28;20036;-79
2022/03/17 02:30:09;;;;;;;42.10;20.20;;;;;;;10.81;100.00;101606.13;5003566;28;20448;-80
2022/03/17 02:32:35;;;;;;;48.70;21.90;;;;;;;10.81;100.00;101611.59;5053827;28;20029;-80
2022/03/17 02:35:09;;;;;;;40.92;22.35;;;;;;;10.83;100.00;101612.38;5009541;28;20046;-80
2022/03/17 02:37:35;;;;;;;39.25;20.48;;;;;;;10.82;100.00;101627.94;5007850;28;20049;-81
2022/03/17 02:40:04;;;;;;;38.22;20.25;;;;;;;10.75;100.00;101615.63;5032600;28;20025;-81
2022/03/17 02:42:30;;;;;;;42.83;22.20;;;;;;;10.82;100.00;101627.94;5019311;28;20061;-81
2022/03/17 02:45:07;;;;;;;47.85;21.75;;;;;;;10.84;100.00;101634.19;5032340;28;20721;-81
2022/03/17 02:47:32;;;;;;;38.95;22.20;;;;;;;10.82;100.00;101635.25;5020951;28;20476;-81
2022/03/17 02:49:58;;;;;;;41.22;21.75;;;;;;;10.82;100.00;101641.63;5017235;28;20057;-80
2022/03/17 02:52:25;;;;;;;47.92;22.10;;;;;;;10.78;100.00;101633.72;5028503;28;20033;-80
2022/03/17 02:54:52;;;;;;;41.58;21.42;;;;;;;10.78;100.00;101637.34;5006164;28;20038;-81
2022/03/17 02:57:18;;;;;;;45.00;23.45;;;;;;;10.78;100.00;101645.56;5025106;28;20034;-82
2022/03/17 02:59:44;;;;;;;46.55;22.25;;;;;;;10.80;100.00;101645.44;5016813;28;20084;-80
2022/03/17 03:02:10;;;;;;;48.50;23.17;;;;;;;10.73;100.00;101641.38;5016267;28;20057;-80
2022/03/17 03:04:36;;;;;;;52.17;23.52;;;;;;;10.73;100.00;101649.59;5029143;28;20040;-80
2022/03/17 03:07:02;;;;;;;45.58;24.25;;;;;;;10.59;100.00;101658.72;5018972;28;20026;-80
2022/03/17 03:09:29;;;;;;;49.53;26.25;;;;;;;10.53;100.00;101646.31;5014231;28;20129;-80
2022/03/17 03:11:54;;;;;;;43.95;24.88;;;;;;;10.46;100.00;101661.38;5011393;28;20041;-80
2022/03/17 03:14:20;;;;;;;50.33;24.38;;;;;;;10.41;100.00;101671.75;5025340;28;20030;-80
2022/03/17 03:16:45;;;;;;;50.92;24.38;;;;;;;10.43;100.00;101678.91;5001470;28;20041;-81
2022/03/17 03:19:11;;;;;;;58.08;26.50;;;;;;;10.38;100.00;101681.06;5016617;28;20038;-80
2022/03/17 03:21:38;;;;;;;53.30;24.17;;;;;;;10.37;100.00;101692.13;5024238;28;20030;-80
2022/03/17 03:24:04;;;;;;;50.50;25.23;;;;;;;10.38;100.00;101692.03;5022057;28;20036;-80
2022/03/17 03:26:30;;;;;;;51.08;26.02;;;;;;;10.33;100.00;101688.72;5028437;28;20032;-80
2022/03/17 03:28:55;;;;;;;51.90;25.27;;;;;;;10.34;100.00;101693.19;5017700;28;20038;-80
2022/03/17 03:31:21;;;;;;;53.83;26.00;;;;;;;10.34;100.00;101695.91;5000343;28;20052;-80
2022/03/17 03:33:47;;;;;;;58.60;27.10;;;;;;;10.32;100.00;101699.72;5020355;28;20483;-80
2022/03/17 03:38:57;;;;;;;58.38;27.33;;;;;;;10.36;100.00;101704.91;5018581;28;20034;-80
2022/03/17 03:41:22;;;;;;;64.15;29.88;;;;;;;10.36;100.00;101707.63;5020593;28;20053;-80
2022/03/17 03:43:47;;;;;;;62.08;27.27;;;;;;;10.43;100.00;101717.25;5021701;28;20120;-80
2022/03/17 03:46:14;;;;;;;59.13;27.23;;;;;;;10.43;100.00;101730.94;5025290;28;20438;-79
2022/03/17 03:48:40;;;;;;;60.63;28.50;;;;;;;10.41;100.00;101732.91;5015338;28;20044;-80
2022/03/17 03:51:07;;;;;;;58.80;28.98;;;;;;;10.43;100.00;101744.63;5025900;28;20424;-80
2022/03/17 03:56:17;;;;;;;59.35;24.58;;;;;;;10.31;100.00;101753.56;5020978;28;20385;-80
2022/03/17 03:58:43;;;;;;;42.25;21.67;;;;;;;10.28;100.00;101760.13;5025539;28;20047;-80
2022/03/17 04:01:08;;;;;;;41.38;22.67;;;;;;;10.24;100.00;101763.16;5027955;28;20030;-80
2022/03/17 04:03:35;;;;;;;38.35;18.50;;;;;;;10.15;100.00;101771.94;5027453;28;20033;-79
2022/03/17 04:06:01;;;;;;;40.80;18.52;;;;;;;10.16;100.00;101782.78;5024791;28;20499;-80
2022/03/17 04:08:26;;;;;;;38.60;19.00;;;;;;;10.10;100.00;101777.69;5017015;28;20022;-80
2022/03/17 04:10:51;;;;;;;33.88;17.20;;;;;;;10.11;100.00;101785.81;5015067;28;20056;-80
2022/03/17 04:13:17;;;;;;;28.52;16.58;;;;;;;9.99;100.00;101786.59;5000467;28;20060;-80
2022/03/17 04:15:42;;;;;;;30.15;17.80;;;;;;;9.89;100.00;101804.53;5013522;28;20128;-80
2022/03/17 04:18:08;;;;;;;32.28;17.65;;;;;;;9.86;100.00;101815.66;5001685;28;20022;-80
2022/03/17 04:20:34;;;;;;;30.65;17.27;;;;;;;9.84;100.00;101836.75;5019022;28;20465;-80
2022/03/17 04:22:59;;;;;;;36.47;19.08;;;;;;;9.71;100.00;101833.88;5003301;28;20045;-79
2022/03/17 04:25:25;;;;;;;36.15;19.80;;;;;;;9.65;100.00;101846.06;5012046;28;20046;-80
2022/03/17 04:27:51;;;;;;;34.80;19.05;;;;;;;9.61;100.00;101840.84;5015143;28;20041;-79
2022/03/17 04:30:16;;;;;;;37.80;19.92;;;;;;;9.56;100.00;101852.97;5027102;28;20040;-79
2022/03/17 04:32:42;;;;;;;38.75;19.95;;;;;;;9.46;100.00;101854.47;5017803;28;20431;-81
2022/03/17 04:35:07;;;;;;;39.75;21.58;;;;;;;9.40;100.00;101865.75;5022053;28;20387;-81
2022/03/17 04:37:33;;;;;;;51.53;26.25;;;;;;;9.23;100.00;101879.50;5024359;28;20061;-80
2022/03/17 04:39:58;;;;;;;51.00;23.98;;;;;;;9.18;100.00;101888.84;5024905;28;20095;-81
2022/03/17 04:42:24;;;;;;;58.00;28.77;;;;;;;9.05;100.00;101900.53;5030111;28;20026;-80
2022/03/17 04:44:49;;;;;;;70.57;31.88;;;;;;;8.99;100.00;101905.38;5008826;28;20059;-81
2022/03/17 04:47:15;;;;;;;68.68;31.92;;;;;;;8.92;100.00;101906.72;5009852;28;20477;-81
2022/03/17 04:49:41;;;;;;;65.25;32.15;;;;;;;8.83;100.00;101916.25;5004601;28;20038;-80
2022/03/17 04:54:51;;;;;;;64.72;30.70;;;;;;;8.73;100.00;101917.75;5022393;28;20321;-80
2022/03/17 04:57:17;;;;;;;73.07;30.92;;;;;;;8.76;100.00;101939.44;5014978;28;20034;-80
2022/03/17 04:59:42;;;;;;;68.05;30.95;;;;;;;8.79;100.00;101957.50;5014768;28;20488;-80
2022/03/17 05:02:08;;;;;;;66.20;28.10;;;;;;;8.76;100.00;101954.94;5033945;28;20477;-81
2022/03/17 05:04:34;;;;;;;66.90;29.80;;;;;;;8.71;100.00;101965.22;5029771;28;20068;-81
2022/03/17 05:06:59;;;;;;;63.70;27.30;;;;;;;8.77;100.00;101981.25;5024232;28;20037;-81
2022/03/17 05:09:25;;;;;;;64.18;27.73;;;;;;;8.75;100.00;101988.66;5005212;28;20052;-80
2022/03/17 05:11:51;;;;;;;47.63;21.00;;;;;;;8.55;100.00;101987.84;5031075;28;20041;-81
2022/03/17 05:14:16;;;;;;;49.88;22.42;;;;;;;8.54;100.00;101988.81;5005172;28;20389;-81
2022/03/17 05:16:41;;;;;;;49.88;20.45;;;;;;;8.43;100.00;101999.44;5014391;28;20122;-80
2022/03/17 05:19:07;;;;;;;50.20;20.83;;;;;;;8.42;100.00;102005.81;5020937;28;20026;-80
2022/03/17 05:21:34;;;;;;;52.85;21.38;;;;;;;8.41;100.00;102018.59;5020537;28;20085;-80
2022/03/17 05:23:59;;;;;;;57.97;23.15;;;;;;;8.36;100.00;102017.03;4998851;28;20049;-81
2022/03/17 05:26:25;;;;;;;59.55;23.73;;;;;;;8.45;100.00;102028.41;5012577;28;20038;-80
2022/03/17 05:28:50;;;;;;;71.82;25.13;;;;;;;8.34;100.00;102040.78;5010927;28;20033;-80
2022/03/17 05:31:16;;;;;;;63.50;23.27;;;;;;;8.36;100.00;102042.50;5023619;28;20042;-80
2022/03/17 05:33:41;;;;;;;65.28;25.70;;;;;;;8.23;100.00;102035.88;5014485;28;20022;-80
2022/03/17 05:36:07;;;;;;;62.58;27.08;;;;;;;8.24;100.00;102049.44;4999707;28;20501;-80
2022/03/17 05:38:33;;;;;;;69.65;30.95;;;;;;;8.25;100.00;102072.16;5024124;28;20033;-80
2022/03/17 05:40:59;;;;;;;72.38;28.35;;;;;;;8.22;100.00;102075.91;5018397;28;20032;-80
2022/03/17 05:43:25;;;;;;;68.30;26.20;;;;;;;8.21;100.00;102081.44;5017065;28;20087;-81
2022/03/17 05:45:51;;;;;;;66.03;24.35;;;;;;;8.15;100.00;102090.84;5008230;28;20470;-79
2022/03/17 05:48:16;;;;;;;46.83;19.20;;;;;;;8.12;100.00;102093.69;5021820;28;20090;-80
2022/03/17 05:50:45;;;;;;;40.83;17.80;;;;;;;8.10;100.00;102101.97;5031014;28;20075;-78
2022/03/17 05:53:10;;;;;;;42.28;16.52;;;;;;;8.03;100.00;102110.50;5025422;28;20030;-81
2022/03/17 05:55:38;;;;;;;45.13;16.27;;;;;;;8.10;100.00;102118.31;5007442;28;20044;-80
2022/03/17 05:58:05;;;;;;;40.83;12.85;;;;;;;8.00;100.00;102127.91;5033420;28;20136;-79
2022/03/17 06:00:32;;;;;;;36.97;11.30;;;;;;;7.90;100.00;102130.19;5021152;28;20038;-80
2022/03/17 06:02:59;;;;;;;43.53;9.57;;;;;;;7.93;100.00;102153.69;5018816;28;20029;-80
2022/03/17 06:05:25;;;;;;;29.55;9.18;;;;;;;7.92;100.00;102143.75;5009744;28;20025;-80
2022/03/17 06:07:53;;;;;;;29.17;8.98;;;;;;;7.88;100.00;102151.19;5020657;28;20034;-80
2022/03/17 06:10:24;;;;;;;15.52;7.05;;;;;;;7.83;100.00;102161.41;5018107;28;20057;-79
2022/03/17 06:12:51;;;;;;;33.58;7.18;;;;;;;7.80;100.00;102177.03;5002165;28;20121;-81
2022/03/17 06:15:17;;;;;;;19.00;7.30;;;;;;;7.86;100.00;102174.03;5029191;28;20025;-81
2022/03/17 06:17:47;;;;;;;21.38;6.30;;;;;;;7.89;100.00;102184.81;5025271;28;20037;-81
2022/03/17 06:20:15;;;;;;;24.90;7.00;;;;;;;7.84;100.00;102197.78;5017828;28;20038;-81
2022/03/17 06:22:42;;;;;;;17.50;6.07;;;;;;;7.82;100.00;102211.47;5026592;28;20492;-80
2022/03/17 06:25:10;;;;;;;18.73;5.57;;;;;;;7.84;100.00;102205.94;5029787;28;20029;-80
2022/03/17 06:27:36;;;;;;;15.75;5.57;;;;;;;7.84;100.00;102216.88;5023056;28;20053;-78
2022/03/17 06:30:09;;;;;;;18.88;5.15;;;;;;;7.79;100.00;102227.97;5029020;28;20037;-80
2022/03/17 06:32:34;;;;;;;21.77;5.23;;;;;;;7.79;100.00;102216.16;5024151;28;20132;-80
2022/03/17 06:35:00;;;;;;;19.92;4.97;;;;;;;7.78;100.00;102212.56;5024341;28;20069;-80
2022/03/17 06:37:26;;;;;;;16.75;4.40;;;;;;;7.78;100.00;102237.09;5034987;27;20044;-80
2022/03/17 06:39:53;;;;;;;16.38;4.43;;;;;;;7.74;100.00;102235.47;5033743;28;20037;-80
2022/03/17 06:42:19;;;;;;;12.68;3.67;;;;;;;7.84;100.00;102250.47;5022474;28;20485;-80
2022/03/17 06:44:44;;;;;;;10.57;3.33;;;;;;;7.78;100.00;102258.91;5018044;28;20096;-81
2022/03/17 06:47:13;;;;;;;17.00;4.65;;;;;;;7.74;100.00;102270.91;5010555;28;20044;-80
2022/03/17 06:49:39;;;;;;;8.52;3.28;;;;;;;7.68;100.00;102273.91;5020707;28;20407;-80
2022/03/17 06:52:06;;;;;;;12.05;3.00;;;;;;;7.75;100.00;102278.13;5017404;28;20057;-79
2022/03/17 06:54:32;;;;;;;13.50;2.75;;;;;;;7.62;100.00;102272.31;5004977;28;20508;-80
2022/03/17 06:56:59;;;;;;;15.23;2.85;;;;;;;7.65;100.00;102284.94;5017917;28;20041;-81
2022/03/17 06:59:25;;;;;;;14.45;2.63;;;;;;;7.71;100.00;102295.59;5023490;28;20053;-81
2022/03/17 07:01:50;;;;;;;12.57;3.38;;;;;;;7.70;100.00;102307.44;5021182;28;20034;-81
2022/03/17 07:04:15;;;;;;;18.35;3.03;;;;;;;7.68;100.00;102306.63;5022364;28;20085;-80
2022/03/17 07:06:41;;;;;;;12.20;3.15;;;;;;;7.68;100.00;102306.63;5018950;28;20029;-80
2022/03/17 07:09:06;;;;;;;17.40;3.55;;;;;;;7.68;100.00;102321.13;5023541;28;20060;-81
2022/03/17 07:11:32;;;;;;;8.23;2.63;;;;;;;7.69;100.00;102322.00;5018914;28;20041;-80
2022/03/17 07:13:58;;;;;;;19.08;3.45;;;;;;;7.85;100.00;102325.84;5017706;28;20481;-80
2022/03/17 07:16:23;;;;;;;13.85;3.10;;;;;;;7.80;100.00;102327.88;5020477;28;20025;-78
2022/03/17 07:18:49;;;;;;;14.40;3.17;;;;;;;7.90;100.00;102337.44;5009619;28;20044;-79
2022/03/17 07:21:15;;;;;;;18.27;3.17;;;;;;;7.85;100.00;102347.66;5020407;28;20116;-80
2022/03/17 07:23:41;;;;;;;12.32;2.95;;;;;;;7.68;100.00;102331.16;5017716;28;20029;-79
2022/03/17 07:26:06;;;;;;;12.38;3.17;;;;;;;7.77;100.00;102343.50;5028938;28;20141;-78
2022/03/17 07:28:32;;;;;;;19.33;3.80;;;;;;;7.82;100.00;102356.00;5012429;28;20102;-78
2022/03/17 07:30:57;;;;;;;19.65;3.17;;;;;;;7.76;100.00;102361.69;5026058;28;20068;-78
2022/03/17 07:33:23;;;;;;;14.10;3.22;;;;;;;7.72;100.00;102363.69;5012486;28;20079;-79
2022/03/17 07:35:48;;;;;;;19.08;4.75;;;;;;;7.69;100.00;102365.63;5023409;28;20046;-79
2022/03/17 07:38:13;;;;;;;18.98;3.08;;;;;;;7.74;100.00;102369.06;5031436;28;20049;-80
2022/03/17 07:40:40;;;;;;;11.60;2.80;;;;;;;7.64;100.00;102379.47;5027249;28;20033;-78
2022/03/17 07:43:07;;;;;;;13.85;2.55;;;;;;;7.67;100.00;102390.25;5029961;28;20067;-80
2022/03/17 07:45:34;;;;;;;13.38;3.13;;;;;;;7.66;100.00;102382.13;5025153;28;20038;-77
2022/03/17 07:47:59;;;;;;;16.45;4.05;;;;;;;7.83;100.00;102395.03;5016698;28;20034;-77
2022/03/17 07:50:25;;;;;;;13.73;3.00;;;;;;;7.82;100.00;102402.34;5028379;27;20017;-78
2022/03/17 07:52:50;;;;;;;14.55;3.58;;;;;;;7.80;100.00;102393.31;5024687;28;20038;-79
2022/03/17 07:55:17;;;;;;;13.00;1.70;;;;;;;7.77;100.00;102414.38;5026749;28;20034;-78
2022/03/17 07:57:43;;;;;;;6.88;1.92;;;;;;;7.89;100.00;102424.78;5004742;28;20038;-79
2022/03/17 08:00:13;;;;;;;8.30;1.50;;;;;;;7.87;100.00;102419.38;5030029;28;20037;-78
2022/03/17 08:02:42;;;;;;;10.98;1.58;;;;;;;7.96;100.00;102414.50;5015836;28;20026;-79
2022/03/17 08:05:13;;;;;;;12.25;1.35;;;;;;;7.99;100.00;102420.69;5023549;28;20384;-78
2022/03/17 08:07:39;;;;;;;20.80;2.30;;;;;;;8.09;100.00;102438.44;5030901;28;20041;-78
2022/03/17 08:10:05;;;;;;;14.77;1.55;;;;;;;8.18;100.00;102448.09;5028747;28;20121;-79
2022/03/17 08:12:31;;;;;;;9.18;1.20;;;;;;;8.21;100.00;102442.47;5032837;28;20034;-80
2022/03/17 08:14:57;;;;;;;18.17;1.60;;;;;;;8.25;100.00;102446.84;5022515;28;20034;-79
2022/03/17 08:17:22;;;;;;;16.35;1.58;;;;;;;8.34;100.00;102458.31;5029486;28;20033;-79
2022/03/17 08:19:48;;;;;;;10.68;1.65;;;;;;;8.33;100.00;102453.81;5025044;28;20048;-78
2022/03/17 08:22:13;;;;;;;9.15;1.52;;;;;;;8.27;100.00;102460.44;5011360;28;20671;-78
2022/03/17 08:24:39;;;;;;;15.40;1.67;;;;;;;8.36;100.00;102464.59;5026187;28;20037;-79
2022/03/17 08:27:04;;;;;;;16.85;2.03;;;;;;;8.33;100.00;102472.91;5023905;28;20050;-79
2022/03/17 08:29:31;;;;;;;14.57;1.45;;;;;;;8.32;100.00;102473.88;5020597;28;20022;-78
2022/03/17 08:31:57;;;;;;;12.07;1.42;;;;;;;8.23;100.00;102484.25;5047304;28;20065;-78
2022/03/17 08:34:23;;;;;;;14.20;1.42;;;;;;;8.04;100.00;102495.03;5027076;28;20042;-78
2022/03/17 08:36:54;;;;;;;14.02;1.70;;;;;;;7.95;100.00;102486.34;5035409;28;20146;-78
2022/03/17 08:39:20;;;;;;;17.95;2.08;;;;;;;8.02;100.00;102504.25;5024699;28;20034;-78
2022/03/17 08:41:46;;;;;;;19.05;1.90;;;;;;;7.97;100.00;102498.97;5023823;28;20034;-78
2022/03/17 08:44:11;;;;;;;12.82;1.52;;;;;;;7.98;100.00;102516.22;5024840;28;20038;-78
2022/03/17 08:49:24;;;;;;;14.68;1.73;;;;;;;7.93;100.00;102521.00;5024227;28;20533;-78
2022/03/17 08:51:56;;;;;;;22.38;2.03;;;;;;;7.92;100.00;102520.09;5013906;28;20116;-78
2022/03/17 08:54:23;;;;;;;20.33;2.25;;;;;;;7.99;100.00;102531.66;5019999;28;20045;-80
2022/03/17 08:56:51;;;;;;;15.75;2.30;;;;;;;7.99;100.00;102532.53;5023152;28;20042;-78
2022/03/17 08:59:17;;;;;;;10.45;1.67;;;;;;;7.97;100.00;102541.72;5026405;28;20042;-78
2022/03/17 09:01:44;;;;;;;19.48;1.70;;;;;;;8.00;100.00;102547.97;5021754;28;20068;-78
2022/03/17 09:04:13;;;;;;;10.52;1.65;;;;;;;8.03;100.00;102552.38;5019389;28;20036;-78
2022/03/17 09:06:43;;;;;;;24.33;2.30;;;;;;;8.06;100.00;102555.88;5024994;28;20064;-79
2022/03/17 09:09:09;;;;;;;16.45;1.83;;;;;;;8.07;100.00;102564.97;5026651;28;20086;-79
2022/03/17 09:11:35;;;;;;;15.68;1.52;;;;;;;8.07;100.00;102565.84;5028215;28;20476;-79
2022/03/17 09:14:01;;;;;;;21.42;2.25;;;;;;;8.24;100.00;102559.66;5035297;28;20029;-79
2022/03/17 09:16:26;;;;;;;14.02;2.10;;;;;;;8.26;100.00;102565.97;5023240;28;20029;-78
2022/03/17 09:18:52;;;;;;;16.92;2.20;;;;;;;8.31;100.00;102567.59;5029983;28;20466;-78
2022/03/17 09:21:17;;;;;;;21.45;1.98;;;;;;;8.45;100.00;102581.59;5025011;28;20052;-80
2022/03/17 09:23:43;;;;;;;16.90;2.17;;;;;;;8.27;100.00;102580.50;5038385;28;20029;-78
2022/03/17 09:26:09;;;;;;;15.35;2.22;;;;;;;8.24;100.00;102576.03;5026569;28;20025;-78
2022/03/17 09:28:35;;;;;;;22.17;2.58;;;;;;;8.26;100.00;102589.63;5029276;28;20038;-78
2022/03/17 09:31:00;;;;;;;12.90;1.83;;;;;;;8.22;100.00;102594.31;5030839;28;20058;-79
2022/03/17 09:33:26;;;;;;;22.60;1.75;;;;;;;8.39;100.00;102603.66;5023905;28;20029;-79
2022/03/17 09:35:53;;;;;;;31.13;2.63;;;;;;;8.46;100.00;102606.09;5040526;28;20042;-79
2022/03/17 09:38:18;;;;;;;13.55;1.70;;;;;;;8.51;100.00;102611.38;5017480;28;20037;-79
2022/03/17 09:40:44;;;;;;;6.75;1.15;;;;;;;8.64;100.00;102607.16;5027561;28;20079;-78
2022/03/17 09:43:19;;;;;;;17.33;1.50;;;;;;;8.68;100.00;102602.47;5045510;28;20083;-80
2022/03/17 09:45:46;;;;;;;8.77;1.40;;;;;;;8.79;100.00;102619.28;5033220;28;20067;-77
2022/03/17 09:48:14;;;;;;;15.35;1.55;;;;;;;8.85;100.00;102617.22;5011245;28;20495;-78
2022/03/17 09:50:41;;;;;;;16.88;1.45;;;;;;;8.75;100.00;102619.47;5032890;28;20561;-78
2022/03/17 09:53:07;;;;;;;16.95;1.88;;;;;;;8.71;100.00;102628.75;5027109;28;20041;-79
2022/03/17 09:55:34;;;;;;;10.45;1.15;;;;;;;8.68;100.00;102627.03;5025939;28;20041;-78
2022/03/17 09:58:01;;;;;;;17.73;1.75;;;;;;;8.71;100.00;102631.50;5024804;28;20464;-79
2022/03/17 10:00:47;;;;;;;8.98;1.45;;;;;;;8.81;100.00;102635.59;5000696;28;20037;-80
2022/03/17 10:03:12;;;;;;;14.65;1.45;;;;;;;8.74;100.00;102642.25;5020488;28;20034;-78
2022/03/17 10:05:37;;;;;;;14.25;1.67;;;;;;;8.77;100.00;102647.59;5018043;28;20037;-79
2022/03/17 10:08:03;;;;;;;9.68;1.27;;;;;;;8.86;100.00;102658.13;5008068;28;20045;-78
2022/03/17 10:10:39;;;;;;;11.45;1.40;;;;;;;8.98;100.00;102663.06;5021669;28;20038;-80
2022/03/17 10:13:20;;;;;;;15.18;1.90;;;;;;;8.96;100.00;102664.09;5037263;28;20519;-78
2022/03/17 10:15:47;;;;;;;12.27;1.30;;;;;;;8.82;100.00;102659.19;5034731;27;20518;-78
2022/03/17 10:18:23;;;;;;;17.20;1.70;;;;;;;8.99;100.00;102675.78;5026312;28;20377;-79
2022/03/17 10:21:17;;;;;;;15.20;1.40;;;;;;;9.02;100.00;102670.19;5023411;28;20083;-79
2022/03/17 10:23:56;;;;;;;28.75;1.83;;;;;;;9.05;100.00;102679.19;5024592;28;20068;-80
2022/03/17 10:26:50;;;;;;;17.63;2.00;;;;;;;8.93;100.00;102680.59;5037085;28;20033;-78
2022/03/17 10:29:19;;;;;;;13.77;1.85;;;;;;;8.97;100.00;102683.16;5026015;28;20145;-78
2022/03/17 10:31:48;;;;;;;10.38;1.35;;;;;;;9.05;100.00;102685.56;5028147;28;20031;-79
2022/03/17 10:34:14;;;;;;;13.50;2.40;;;;;;;8.91;100.00;102685.25;5027783;28;20033;-79
2022/03/17 10:36:41;;;;;;;8.70;1.23;;;;;;;8.98;100.00;102679.44;5030380;28;20056;-79
2022/03/17 10:39:10;;;;;;;10.05;1.45;;;;;;;9.20;100.00;102690.34;5028642;28;20037;-79
2022/03/17 10:41:44;;;;;;;16.02;1.48;;;;;;;9.23;100.00;102693.91;5029286;27;20030;-79
2022/03/17 10:44:18;;;;;;;13.93;2.13;;;;;;;9.19;100.00;102694.03;5051036;28;20029;-79
2022/03/17 10:47:01;;;;;;;21.65;1.73;;;;;;;9.15;100.00;102703.31;5027898;28;20033;-78
2022/03/17 10:49:26;;;;;;;;;;;;;;;9.25;100.00;102717.47;5030474;28;20042;-79
2022/03/17 10:51:54;;;;;;;14.18;1.45;;;;;;;9.23;100.00;102711.19;5020547;28;19961;-78
2022/03/17 10:54:20;;;;;;;6.90;1.30;;;;;;;9.27;100.00;102712.84;5035495;27;20442;-79
2022/03/17 10:57:05;;;;;;;13.80;1.30;;;;;;;9.24;100.00;102720.28;5018787;28;20038;-78
2022/03/17 10:59:43;;;;;;;13.77;1.42;;;;;;;9.25;100.00;102725.69;5032729;27;20039;-79
2022/03/17 11:02:21;;;;;;;19.20;2.22;;;;;;;9.43;100.00;102726.72;5039565;27;20093;-80
2022/03/17 11:04:47;;;;;;;14.93;1.42;;;;;;;9.44;100.00;102739.41;5022899;28;20129;-79
2022/03/17 11:07:15;;;;;;;8.25;1.38;;;;;;;9.26;100.00;102727.44;5035086;28;20025;-79
2022/03/17 11:09:43;;;;;;;12.80;2.05;;;;;;;9.43;100.00;102750.41;5031789;28;20054;-79
2022/03/17 11:12:20;;;;;;;13.00;1.50;;;;;;;9.25;100.00;102754.84;5010870;28;20049;-79
2022/03/17 11:14:47;;;;;;;12.70;1.63;;;;;;;9.12;100.00;102751.75;5022549;28;20108;-79
2022/03/17 11:17:23;;;;;;;11.48;1.48;;;;;;;9.10;100.00;102759.13;5031192;28;20026;-79
2022/03/17 11:19:49;;;;;;;8.93;1.83;;;;;;;9.13;100.00;102769.91;5015950;28;20038;-79
2022/03/17 11:22:22;;;;;;;10.85;1.52;;;;;;;9.05;100.00;102766.63;5028716;28;20125;-78
2022/03/17 11:25:08;;;;;;;;;;;;;;;9.37;100.00;102770.72;5021937;28;20062;-78
2022/03/17 11:27:46;;;;;;;10.50;1.60;;;;;;;9.34;100.00;102769.00;5021510;28;19958;-77